createdAt,value
2023-04-23T00:01:59.717Z,9.56
2023-04-23T00:04:27.130Z,9.55
2023-04-23T00:06:54.227Z,9.48
2023-04-23T00:09:23.112Z,9.49
2023-04-23T00:11:50.129Z,9.46
2023-04-23T00:14:17.277Z,9.32
2023-04-23T00:16:44.325Z,9.42
2023-04-23T00:19:11.222Z,9.40
2023-04-23T00:21:38.016Z,9.31
2023-04-23T00:24:04.955Z,9.24
2023-04-23T00:26:31.663Z,9.31
2023-04-23T00:28:58.413Z,9.26
2023-04-23T00:31:27.275Z,9.19
2023-04-23T00:33:54.252Z,9.20
2023-04-23T00:36:20.898Z,9.16
2023-04-23T00:38:48.215Z,9.14
2023-04-23T00:41:15.586Z,8.97
2023-04-23T00:43:42.299Z,8.98
2023-04-23T00:46:09.238Z,8.93
2023-04-23T00:48:36.486Z,8.97
2023-04-23T00:51:06.896Z,8.94
2023-04-23T00:53:33.930Z,8.86
2023-04-23T00:56:02.198Z,8.85
2023-04-23T00:58:29.761Z,8.68
2023-04-23T01:00:57.034Z,8.62
2023-04-23T01:03:25.856Z,8.64
2023-04-23T01:05:53.148Z,8.61
2023-04-23T01:08:20.717Z,8.38
2023-04-23T01:10:47.807Z,8.48
2023-04-23T01:13:14.904Z,8.43
2023-04-23T01:15:42.482Z,8.54
2023-04-23T01:18:09.359Z,8.56
2023-04-23T01:20:36.330Z,8.55
2023-04-23T01:23:03.840Z,8.46
2023-04-23T01:25:30.880Z,8.03
2023-04-23T01:27:58.370Z,8.19
2023-04-23T01:30:29.834Z,8.26
2023-04-23T01:32:56.890Z,8.25
2023-04-23T01:35:24.594Z,8.19
2023-04-23T01:37:54.770Z,8.14
2023-04-23T01:40:21.908Z,7.89
2023-04-23T01:42:49.060Z,7.84
2023-04-23T01:45:17.810Z,7.99
2023-04-23T01:47:44.654Z,8.05
2023-04-23T01:50:11.588Z,7.83
2023-04-23T01:52:38.530Z,7.83
2023-04-23T01:55:05.670Z,8.04
2023-04-23T01:57:32.905Z,8.08
2023-04-23T02:00:13.107Z,8.12
2023-04-23T02:02:41.531Z,8.17
2023-04-23T02:05:18.917Z,8.05
2023-04-23T02:07:47.519Z,7.98
2023-04-23T02:10:14.693Z,8.05
2023-04-23T02:12:41.682Z,8.00
2023-04-23T02:15:09.840Z,7.91
2023-04-23T02:17:36.675Z,7.97
2023-04-23T02:20:04.051Z,8.04
2023-04-23T02:22:31.847Z,8.01
2023-04-23T02:24:59.166Z,8.07
2023-04-23T02:27:25.978Z,8.07
2023-04-23T02:29:53.632Z,8.03
2023-04-23T02:32:20.422Z,8.08
2023-04-23T02:34:47.180Z,8.10
2023-04-23T02:37:13.922Z,8.19
2023-04-23T02:39:40.830Z,8.24
2023-04-23T02:42:07.610Z,8.20
2023-04-23T02:44:34.392Z,8.11
2023-04-23T02:47:01.365Z,8.28
2023-04-23T02:49:28.263Z,8.26
2023-04-23T02:51:55.013Z,8.28
2023-04-23T02:54:21.838Z,8.26
2023-04-23T02:56:48.570Z,8.35
2023-04-23T02:59:15.409Z,8.32
2023-04-23T03:01:42.132Z,8.34
2023-04-23T03:04:09.322Z,8.36
2023-04-23T03:06:37.073Z,8.15
2023-04-23T03:09:03.964Z,8.23
2023-04-23T03:11:31.845Z,8.24
2023-04-23T03:13:58.662Z,8.39
2023-04-23T03:16:27.169Z,8.44
2023-04-23T03:18:53.905Z,8.43
2023-04-23T03:21:20.733Z,8.35
2023-04-23T03:23:47.502Z,8.35
2023-04-23T03:26:14.295Z,8.28
2023-04-23T03:28:41.048Z,8.29
2023-04-23T03:31:07.906Z,8.36
2023-04-23T03:33:34.900Z,8.26
2023-04-23T03:36:01.650Z,8.41
2023-04-23T03:38:28.354Z,8.53
2023-04-23T03:40:55.110Z,8.56
2023-04-23T03:43:21.835Z,8.53
2023-04-23T03:45:48.681Z,8.41
2023-04-23T03:48:16.047Z,8.43
2023-04-23T03:50:42.777Z,8.44
2023-04-23T03:53:10.325Z,8.48
2023-04-23T03:55:36.989Z,8.45
2023-04-23T03:58:03.933Z,8.53
2023-04-23T04:00:30.642Z,8.52
2023-04-23T04:02:57.621Z,8.40
2023-04-23T04:05:25.053Z,8.47
2023-04-23T04:07:51.937Z,8.52
2023-04-23T04:10:18.768Z,8.45
2023-04-23T04:12:47.911Z,8.50
2023-04-23T04:15:16.641Z,8.52
2023-04-23T04:17:46.059Z,8.56
2023-04-23T04:20:13.127Z,8.59
2023-04-23T04:22:40.233Z,8.54
2023-04-23T04:25:07.616Z,8.56
2023-04-23T04:27:34.741Z,8.56
2023-04-23T04:30:02.199Z,8.58
2023-04-23T04:32:28.853Z,8.54
2023-04-23T04:34:55.580Z,8.62
2023-04-23T04:37:22.162Z,8.73
2023-04-23T04:39:48.777Z,8.78
2023-04-23T04:42:15.942Z,8.83
2023-04-23T04:44:43.880Z,8.84
2023-04-23T04:47:10.962Z,8.75
2023-04-23T04:49:38.321Z,8.83
2023-04-23T04:52:05.068Z,8.87
2023-04-23T04:54:31.758Z,9.00
2023-04-23T04:56:58.343Z,9.05
2023-04-23T04:59:24.989Z,9.02
2023-04-23T05:01:51.619Z,9.01
2023-04-23T05:04:18.458Z,9.13
2023-04-23T05:06:45.162Z,9.12
2023-04-23T05:09:11.978Z,9.16
2023-04-23T05:11:38.711Z,9.05
2023-04-23T05:14:05.390Z,9.12
2023-04-23T05:16:32.167Z,9.22
2023-04-23T05:18:58.788Z,9.27
2023-04-23T05:21:27.555Z,9.27
2023-04-23T05:23:55.023Z,9.37
2023-04-23T05:26:21.615Z,9.50
2023-04-23T05:28:48.342Z,9.57
2023-04-23T05:31:15.045Z,9.53
2023-04-23T05:33:49.997Z,9.60
2023-04-23T05:36:17.633Z,9.47
2023-04-23T05:38:44.214Z,9.52
2023-04-23T05:41:10.990Z,9.71
2023-04-23T05:43:37.812Z,9.88
2023-04-23T05:46:07.820Z,9.84
2023-04-23T05:48:34.817Z,9.72
2023-04-23T05:51:01.534Z,9.64
2023-04-23T05:53:28.381Z,9.45
2023-04-23T05:55:55.076Z,9.76
2023-04-23T05:58:21.790Z,9.82
2023-04-23T06:00:48.515Z,9.90
2023-04-23T06:03:15.326Z,10.17
2023-04-23T06:05:43.343Z,10.91
2023-04-23T06:08:10.041Z,11.10
2023-04-23T06:10:36.709Z,11.69
2023-04-23T06:13:03.446Z,11.70
2023-04-23T06:15:30.059Z,11.99
2023-04-23T06:17:56.818Z,12.18
2023-04-23T06:20:23.465Z,12.10
2023-04-23T06:22:50.190Z,12.05
2023-04-23T06:25:16.793Z,12.50
2023-04-23T06:27:43.392Z,12.33
2023-04-23T06:30:10.283Z,12.78
2023-04-23T06:32:37.104Z,12.41
2023-04-23T06:35:04.700Z,12.33
2023-04-23T06:37:31.851Z,12.40
2023-04-23T06:39:59.493Z,13.12
2023-04-23T06:42:26.352Z,13.08
2023-04-23T06:44:53.021Z,12.92
2023-04-23T06:47:19.965Z,13.68
2023-04-23T06:49:46.589Z,13.84
2023-04-23T06:52:13.388Z,13.42
2023-04-23T06:54:40.454Z,13.85
2023-04-23T06:57:07.272Z,14.44
2023-04-23T06:59:33.911Z,14.86
2023-04-23T07:02:00.840Z,14.96
2023-04-23T07:04:27.622Z,15.33
2023-04-23T07:06:55.204Z,15.35
2023-04-23T07:09:21.995Z,15.24
2023-04-23T07:11:48.704Z,15.16
2023-04-23T07:14:15.362Z,15.05
2023-04-23T07:16:41.997Z,14.57
2023-04-23T07:19:08.608Z,13.94
2023-04-23T07:21:35.981Z,14.15
2023-04-23T07:24:07.316Z,14.55
2023-04-23T07:26:37.365Z,14.95
2023-04-23T07:29:04.635Z,15.18
2023-04-23T07:31:31.351Z,15.32
2023-04-23T07:33:57.993Z,15.57
2023-04-23T07:36:24.867Z,15.16
2023-04-23T07:38:51.596Z,15.38
2023-04-23T07:41:18.683Z,15.60
2023-04-23T07:43:45.834Z,15.98
2023-04-23T07:46:12.634Z,15.87
2023-04-23T07:48:39.365Z,15.21
2023-04-23T07:51:06.820Z,16.00
2023-04-23T07:53:33.812Z,16.63
2023-04-23T07:56:00.708Z,16.85
2023-04-23T07:58:27.330Z,17.52
2023-04-23T08:00:54.057Z,16.91
2023-04-23T08:03:21.213Z,17.27
2023-04-23T08:05:48.123Z,17.44
2023-04-23T08:08:15.026Z,17.66
2023-04-23T08:10:42.021Z,17.46
2023-04-23T08:13:08.678Z,17.57
2023-04-23T08:15:35.366Z,17.23
2023-04-23T08:18:02.694Z,17.28
2023-04-23T08:20:29.764Z,17.62
2023-04-23T08:22:56.775Z,17.42
2023-04-23T08:25:23.674Z,17.13
2023-04-23T08:27:50.330Z,18.19
2023-04-23T08:30:17.024Z,17.66
2023-04-23T08:32:43.695Z,17.90
2023-04-23T08:35:10.621Z,18.18
2023-04-23T08:37:39.101Z,18.63
2023-04-23T08:40:07.652Z,18.30
2023-04-23T08:42:40.374Z,18.97
2023-04-23T08:45:07.739Z,18.90
2023-04-23T08:47:35.807Z,19.14
2023-04-23T08:50:04.545Z,19.19
2023-04-23T08:52:34.505Z,19.32
2023-04-23T08:55:02.217Z,19.06
2023-04-23T08:57:29.094Z,19.37
2023-04-23T08:59:55.847Z,19.59
2023-04-23T09:02:23.272Z,19.23
2023-04-23T09:04:51.794Z,19.96
2023-04-23T09:07:19.413Z,19.59
2023-04-23T09:09:46.205Z,19.99
2023-04-23T09:12:12.875Z,19.63
2023-04-23T09:14:39.602Z,19.01
2023-04-23T09:17:06.874Z,19.37
2023-04-23T09:19:33.579Z,19.32
2023-04-23T09:22:03.284Z,19.42
2023-04-23T09:24:30.343Z,19.18
2023-04-23T09:26:58.549Z,19.14
2023-04-23T09:29:25.448Z,18.81
2023-04-23T09:32:03.104Z,18.93
2023-04-23T09:34:29.815Z,19.10
2023-04-23T09:36:56.606Z,19.07
2023-04-23T09:39:24.250Z,18.87
2023-04-23T09:41:54.261Z,18.99
2023-04-23T09:44:26.594Z,19.09
2023-04-23T09:46:53.415Z,19.07
2023-04-23T09:49:20.253Z,19.14
2023-04-23T09:51:48.882Z,19.31
2023-04-23T09:54:22.944Z,19.18
2023-04-23T09:56:51.334Z,19.28
2023-04-23T09:59:36.047Z,19.40
2023-04-23T10:02:13.379Z,19.57
2023-04-23T10:04:40.458Z,19.76
2023-04-23T10:07:19.029Z,19.63
2023-04-23T10:09:47.841Z,19.74
2023-04-23T10:14:46.475Z,19.98
2023-04-23T10:17:13.682Z,19.78
2023-04-23T10:19:43.546Z,19.74
2023-04-23T10:22:19.365Z,19.79
2023-04-23T10:24:49.127Z,19.80
2023-04-23T10:27:27.010Z,19.92
2023-04-23T10:30:01.085Z,19.77
2023-04-23T10:32:28.272Z,19.82
2023-04-23T10:34:54.927Z,19.95
2023-04-23T10:37:22.450Z,20.17
2023-04-23T10:39:51.119Z,20.28
2023-04-23T10:42:18.346Z,20.58
2023-04-23T10:44:59.044Z,20.58
2023-04-23T10:47:29.791Z,20.60
2023-04-23T10:49:56.547Z,20.90
2023-04-23T10:52:25.821Z,20.93
2023-04-23T10:55:02.333Z,20.92
2023-04-23T10:57:29.051Z,21.11
2023-04-23T10:59:57.128Z,21.03
2023-04-23T11:02:24.878Z,21.12
2023-04-23T11:04:58.877Z,20.99
2023-04-23T11:07:33.087Z,21.02
2023-04-23T11:10:01.204Z,21.77
2023-04-23T11:12:27.865Z,22.21
2023-04-23T11:14:55.882Z,21.43
2023-04-23T11:17:24.583Z,21.47
2023-04-23T11:20:18.977Z,21.30
2023-04-23T11:22:49.843Z,21.36
2023-04-23T11:25:23.647Z,20.94
2023-04-23T11:27:51.683Z,20.76
2023-04-23T11:30:26.170Z,20.83
2023-04-23T11:32:55.504Z,21.09
2023-04-23T11:35:30.739Z,21.08
2023-04-23T11:37:57.613Z,21.04
2023-04-23T11:40:24.521Z,21.14
2023-04-23T11:42:54.699Z,20.90
2023-04-23T11:45:23.800Z,20.77
2023-04-23T11:47:56.509Z,20.55
2023-04-23T11:50:33.116Z,20.15
2023-04-23T11:53:09.029Z,19.86
2023-04-23T11:55:35.846Z,19.76
2023-04-23T11:58:03.668Z,19.59
2023-04-23T12:00:30.447Z,19.57
2023-04-23T12:03:02.615Z,18.48
2023-04-23T12:05:30.546Z,17.64
2023-04-23T12:08:32.113Z,17.31
2023-04-23T12:11:03.559Z,17.18
2023-04-23T12:13:33.676Z,17.14
2023-04-23T12:16:05.430Z,17.43
2023-04-23T12:18:40.386Z,17.54
2023-04-23T12:21:11.949Z,17.38
2023-04-23T12:23:40.153Z,17.54
2023-04-23T12:26:15.435Z,17.32
2023-04-23T12:28:52.400Z,17.33
2023-04-23T12:31:24.349Z,17.45
2023-04-23T12:34:02.963Z,17.89
2023-04-23T12:36:31.783Z,18.13
2023-04-23T12:39:30.902Z,18.47
2023-04-23T12:42:06.012Z,18.60
2023-04-23T12:44:35.913Z,18.74
2023-04-23T12:47:07.829Z,18.89
2023-04-23T12:49:36.369Z,18.96
2023-04-23T12:52:04.019Z,18.58
2023-04-23T12:54:33.318Z,18.40
2023-04-23T12:57:02.044Z,18.75
2023-04-23T12:59:29.288Z,18.83
2023-04-23T13:01:56.186Z,19.17
2023-04-23T13:04:22.966Z,19.52
2023-04-23T13:06:49.707Z,19.53
2023-04-23T13:09:16.546Z,19.54
2023-04-23T13:11:43.305Z,19.44
2023-04-23T13:14:10.076Z,19.67
2023-04-23T13:16:36.974Z,19.63
2023-04-23T13:19:03.735Z,19.67
2023-04-23T13:21:30.562Z,19.87
2023-04-23T13:23:57.319Z,19.46
2023-04-23T13:26:24.261Z,19.18
2023-04-23T13:28:51.010Z,19.23
2023-04-23T13:31:17.982Z,19.54
2023-04-23T13:33:44.731Z,19.76
2023-04-23T13:36:11.473Z,19.85
2023-04-23T13:38:38.274Z,19.68
2023-04-23T13:41:05.069Z,20.25
2023-04-23T13:43:31.777Z,20.22
2023-04-23T13:45:59.120Z,20.23
2023-04-23T13:48:28.904Z,20.52
2023-04-23T13:50:55.951Z,20.24
2023-04-23T13:53:22.994Z,20.16
2023-04-23T13:55:49.870Z,19.71
2023-04-23T13:58:16.828Z,20.05
2023-04-23T14:00:44.009Z,20.19
2023-04-23T14:03:11.246Z,19.92
2023-04-23T14:05:38.573Z,19.66
2023-04-23T14:08:05.543Z,20.04
2023-04-23T14:10:32.289Z,20.45
2023-04-23T14:12:58.994Z,20.43
2023-04-23T14:15:25.877Z,20.41
2023-04-23T14:17:53.217Z,20.12
2023-04-23T14:20:20.901Z,19.82
2023-04-23T14:22:55.628Z,19.78
2023-04-23T14:25:36.341Z,19.79
2023-04-23T14:28:29.686Z,19.43
2023-04-23T14:30:57.510Z,19.76
2023-04-23T14:33:24.477Z,19.08
2023-04-23T14:35:51.216Z,18.55
2023-04-23T14:38:18.329Z,18.33
2023-04-23T14:40:45.206Z,18.97
2023-04-23T14:43:15.556Z,18.48
2023-04-23T14:45:43.034Z,18.52
2023-04-23T14:48:09.885Z,18.08
2023-04-23T14:50:36.700Z,18.18
2023-04-23T14:53:07.813Z,18.24
2023-04-23T14:55:34.530Z,18.15
2023-04-23T14:58:01.668Z,18.07
2023-04-23T15:00:28.525Z,17.96
2023-04-23T15:02:55.567Z,17.91
2023-04-23T15:05:22.415Z,17.84
2023-04-23T15:07:49.149Z,17.98
2023-04-23T15:10:16.194Z,18.16
2023-04-23T15:12:49.460Z,18.18
2023-04-23T15:15:43.684Z,18.04
2023-04-23T15:18:13.732Z,18.01
2023-04-23T15:20:40.818Z,17.95
2023-04-23T15:23:07.579Z,17.76
2023-04-23T15:25:34.845Z,17.61
2023-04-23T15:28:01.785Z,17.64
2023-04-23T15:30:28.775Z,17.72
2023-04-23T15:32:55.840Z,17.73
2023-04-23T15:35:23.538Z,17.68
2023-04-23T15:37:50.801Z,17.71
2023-04-23T15:40:17.626Z,17.36
2023-04-23T15:42:48.126Z,17.24
2023-04-23T15:45:14.994Z,17.39
2023-04-23T15:47:42.272Z,17.25
2023-04-23T15:50:10.877Z,17.25
2023-04-23T15:52:38.060Z,17.36
2023-04-23T15:55:05.884Z,17.13
2023-04-23T15:57:32.536Z,16.94
2023-04-23T15:59:59.358Z,16.59
2023-04-23T16:02:26.354Z,15.89
2023-04-23T16:04:53.158Z,15.48
2023-04-23T16:07:19.810Z,15.03
2023-04-23T16:09:46.500Z,14.48
2023-04-23T16:12:13.212Z,14.51
2023-04-23T16:14:40.478Z,14.41
2023-04-23T16:17:07.332Z,14.21
2023-04-23T16:19:34.090Z,14.47
2023-04-23T16:22:00.993Z,14.40
2023-04-23T16:24:27.769Z,14.27
2023-04-23T16:26:54.785Z,14.25
2023-04-23T16:29:23.014Z,14.11
2023-04-23T16:31:50.329Z,14.34
2023-04-23T16:34:17.417Z,14.20
2023-04-23T16:36:44.157Z,14.18
2023-04-23T16:39:11.505Z,14.34
2023-04-23T16:41:38.435Z,14.21
2023-04-23T16:44:05.540Z,14.43
2023-04-23T16:46:32.364Z,14.27
2023-04-23T16:48:59.319Z,14.28
2023-04-23T16:51:26.997Z,14.22
2023-04-23T16:53:54.291Z,14.23
2023-04-23T16:56:21.452Z,14.17
2023-04-23T16:58:48.326Z,14.13
2023-04-23T17:01:16.609Z,14.03
2023-04-23T17:03:44.381Z,14.06
2023-04-23T17:06:15.581Z,13.96
2023-04-23T17:08:42.266Z,13.81
2023-04-23T17:11:09.055Z,13.63
2023-04-23T17:13:35.701Z,13.50
2023-04-23T17:16:02.736Z,13.48
2023-04-23T17:18:29.932Z,13.55
2023-04-23T17:20:56.822Z,13.41
2023-04-23T17:23:23.590Z,13.58
2023-04-23T17:25:50.309Z,13.27
2023-04-23T17:28:18.602Z,13.24
2023-04-23T17:30:46.124Z,13.23
2023-04-23T17:33:13.001Z,13.20
2023-04-23T17:35:40.629Z,13.23
2023-04-23T17:38:07.285Z,13.26
2023-04-23T17:40:34.293Z,13.25
2023-04-23T17:43:01.201Z,13.22
2023-04-23T17:45:27.980Z,13.18
2023-04-23T17:47:54.759Z,12.97
2023-04-23T17:50:22.139Z,13.12
2023-04-23T17:52:48.925Z,12.99
2023-04-23T17:55:15.584Z,12.98
2023-04-23T17:57:42.365Z,12.89
2023-04-23T18:00:10.020Z,12.51
2023-04-23T18:02:40.485Z,12.48
2023-04-23T18:05:12.018Z,12.64
2023-04-23T18:07:39.566Z,12.64
2023-04-23T18:10:07.595Z,12.53
2023-04-23T18:12:34.962Z,12.44
2023-04-23T18:15:01.981Z,12.34
2023-04-23T18:17:28.746Z,12.33
2023-04-23T18:19:55.750Z,12.27
2023-04-23T18:22:22.639Z,12.25
2023-04-23T18:24:50.593Z,12.17
2023-04-23T18:27:17.649Z,12.17
2023-04-23T18:29:44.872Z,12.02
2023-04-23T18:32:20.976Z,11.89
2023-04-23T18:34:54.984Z,11.90
2023-04-23T18:37:38.164Z,11.94
2023-04-23T18:40:06.365Z,11.85
2023-04-23T18:42:33.692Z,11.81
2023-04-23T18:45:00.563Z,11.82
2023-04-23T18:47:37.558Z,11.67
2023-04-23T18:50:09.710Z,11.51
2023-04-23T18:52:36.441Z,11.50
2023-04-23T18:55:03.335Z,11.48
2023-04-23T18:57:30.241Z,11.48
2023-04-23T18:59:57.222Z,11.31
2023-04-23T19:02:34.495Z,11.37
2023-04-23T19:05:01.853Z,11.34
2023-04-23T19:07:28.952Z,11.32
2023-04-23T19:09:55.887Z,11.19
2023-04-23T19:12:22.886Z,11.19
2023-04-23T19:14:49.788Z,11.08
2023-04-23T19:17:18.761Z,11.01
2023-04-23T19:19:46.313Z,10.92
2023-04-23T19:22:13.538Z,10.89
2023-04-23T19:24:40.343Z,10.82
2023-04-23T19:27:07.855Z,10.81
2023-04-23T19:29:34.969Z,10.73
2023-04-23T19:32:02.348Z,10.79
2023-04-23T19:34:29.713Z,10.72
2023-04-23T19:36:56.891Z,10.62
2023-04-23T19:39:23.918Z,10.60
2023-04-23T19:41:50.619Z,10.55
2023-04-23T19:44:17.495Z,10.66
2023-04-23T19:46:44.587Z,10.63
2023-04-23T19:49:11.647Z,10.55
2023-04-23T19:51:39.541Z,10.59
2023-04-23T19:54:06.755Z,10.56
2023-04-23T19:56:33.678Z,10.43
2023-04-23T19:59:00.675Z,10.58
2023-04-23T20:01:30.173Z,10.35
2023-04-23T20:03:57.460Z,10.37
2023-04-23T20:06:24.155Z,10.27
2023-04-23T20:09:18.096Z,10.12
2023-04-23T20:11:48.392Z,10.06
2023-04-23T20:14:15.194Z,10.00
2023-04-23T20:16:42.028Z,9.98
2023-04-23T20:19:12.011Z,9.92
2023-04-23T20:21:39.257Z,9.86
2023-04-23T20:24:07.559Z,9.64
2023-04-23T20:26:35.554Z,9.84
2023-04-23T20:29:02.318Z,9.91
2023-04-23T20:31:29.242Z,9.82
2023-04-23T20:33:56.536Z,9.59
2023-04-23T20:36:28.981Z,9.77
2023-04-23T20:38:58.101Z,9.81
2023-04-23T20:41:31.062Z,10.04
2023-04-23T20:43:59.040Z,9.85
2023-04-23T20:46:26.564Z,9.68
2023-04-23T20:48:54.340Z,9.78
2023-04-23T20:51:24.485Z,9.60
2023-04-23T20:53:51.856Z,9.44
2023-04-23T20:56:18.736Z,9.44
2023-04-23T20:58:45.401Z,9.39
2023-04-23T21:01:12.041Z,9.55
2023-04-23T21:03:39.460Z,9.57
2023-04-23T21:06:08.964Z,9.65
2023-04-23T21:08:42.997Z,9.56
2023-04-23T21:11:18.235Z,9.47
2023-04-23T21:13:45.884Z,9.52
2023-04-23T21:16:12.921Z,9.53
2023-04-23T21:18:40.303Z,9.45
2023-04-23T21:21:07.942Z,9.44
2023-04-23T21:23:34.631Z,9.36
2023-04-23T21:26:03.272Z,9.42
2023-04-23T21:28:29.960Z,9.19
2023-04-23T21:30:58.318Z,9.14
2023-04-23T21:33:25.376Z,9.22
2023-04-23T21:35:53.176Z,9.17
2023-04-23T21:38:20.602Z,9.18
2023-04-23T21:40:47.239Z,9.22
2023-04-23T21:43:14.125Z,9.23
2023-04-23T21:45:40.842Z,9.16
2023-04-23T21:48:07.941Z,9.19
2023-04-23T21:50:34.840Z,9.17
2023-04-23T21:53:04.124Z,9.22
2023-04-23T21:55:31.827Z,9.14
2023-04-23T21:58:09.697Z,9.10
2023-04-23T22:00:44.709Z,9.06
2023-04-23T22:03:12.244Z,9.08
2023-04-23T22:05:42.128Z,8.79
2023-04-23T22:08:09.771Z,8.78
2023-04-23T22:10:42.959Z,8.74
2023-04-23T22:13:11.173Z,8.78
2023-04-23T22:15:38.488Z,8.84
2023-04-23T22:18:05.509Z,8.82
2023-04-23T22:20:32.401Z,8.91
2023-04-23T22:22:59.100Z,8.79
2023-04-23T22:25:26.426Z,8.75
2023-04-23T22:27:53.044Z,8.66
2023-04-23T22:30:19.708Z,8.63
2023-04-23T22:32:46.483Z,8.61
2023-04-23T22:35:13.213Z,8.55
2023-04-23T22:37:39.976Z,8.59
2023-04-23T22:40:10.482Z,8.52
2023-04-23T22:42:37.644Z,8.27
2023-04-23T22:45:04.981Z,8.19
2023-04-23T22:47:31.945Z,8.19
2023-04-23T22:49:58.939Z,8.03
2023-04-23T22:52:26.149Z,8.08
2023-04-23T22:54:54.897Z,8.23
2023-04-23T22:57:21.684Z,8.28
2023-04-23T22:59:48.311Z,8.19
2023-04-23T23:02:16.130Z,8.11
2023-04-23T23:04:42.988Z,8.08
2023-04-23T23:07:10.116Z,8.26
2023-04-23T23:09:36.860Z,8.36
2023-04-23T23:12:04.423Z,8.36
2023-04-23T23:14:31.957Z,8.31
2023-04-23T23:16:59.318Z,8.28
2023-04-23T23:19:31.086Z,8.26
2023-04-23T23:21:57.900Z,8.24
2023-04-23T23:24:24.634Z,8.22
2023-04-23T23:26:51.396Z,8.23
2023-04-23T23:29:18.175Z,8.32
2023-04-23T23:31:45.155Z,8.37
2023-04-23T23:34:12.524Z,8.52
2023-04-23T23:36:39.249Z,8.42
2023-04-23T23:39:06.868Z,8.38
2023-04-23T23:41:33.856Z,8.55
2023-04-23T23:44:00.647Z,8.43
2023-04-23T23:46:27.799Z,8.52
2023-04-23T23:48:54.690Z,8.51
2023-04-23T23:51:21.494Z,8.48
2023-04-23T23:53:48.246Z,8.43
2023-04-23T23:56:15.032Z,8.31
2023-04-23T23:58:41.881Z,8.31
